createdAt,value
2023-01-13T00:00:03.468Z,13.00
2023-01-13T00:02:38.873Z,14.20
2023-01-13T00:05:06.451Z,13.20
2023-01-13T00:07:33.483Z,12.00
2023-01-13T00:10:00.612Z,14.20
2023-01-13T00:12:27.820Z,13.20
2023-01-13T00:14:54.822Z,12.90
2023-01-13T00:17:22.807Z,12.50
2023-01-13T00:19:50.149Z,13.30
2023-01-13T00:22:17.210Z,13.50
2023-01-13T00:24:44.332Z,13.60
2023-01-13T00:27:11.425Z,14.10
2023-01-13T00:29:38.540Z,13.40
2023-01-13T00:32:05.588Z,13.40
2023-01-13T00:34:32.693Z,13.20
2023-01-13T00:36:59.685Z,12.40
2023-01-13T00:39:26.783Z,13.90
2023-01-13T00:42:12.313Z,11.90
2023-01-13T00:44:39.402Z,12.80
2023-01-13T00:47:06.413Z,12.50
2023-01-13T00:49:33.532Z,11.70
2023-01-13T00:52:00.622Z,12.60
2023-01-13T00:54:27.610Z,13.60
2023-01-13T00:56:54.734Z,12.60
2023-01-13T00:59:21.837Z,11.60
2023-01-13T01:01:49.116Z,12.60
2023-01-13T01:04:16.453Z,12.80
2023-01-13T01:06:43.609Z,13.20
2023-01-13T01:09:15.514Z,14.20
2023-01-13T01:11:42.856Z,13.70
2023-01-13T01:14:11.462Z,12.70
2023-01-13T01:16:38.704Z,13.00
2023-01-13T01:19:06.136Z,12.80
2023-01-13T01:21:33.453Z,13.40
2023-01-13T01:24:01.571Z,13.10
2023-01-13T01:26:29.303Z,12.40
2023-01-13T01:28:56.385Z,13.20
2023-01-13T01:31:28.266Z,12.30
2023-01-13T01:33:55.721Z,12.70
2023-01-13T01:36:23.592Z,12.10
2023-01-13T01:38:50.578Z,12.20
2023-01-13T01:41:20.025Z,11.70
2023-01-13T01:44:00.292Z,12.10
2023-01-13T01:46:38.849Z,12.80
2023-01-13T01:49:05.896Z,12.20
2023-01-13T01:51:38.407Z,12.60
2023-01-13T01:54:06.176Z,12.00
2023-01-13T01:56:33.946Z,12.50
2023-01-13T01:59:01.105Z,12.40
2023-01-13T02:01:28.463Z,13.20
2023-01-13T02:04:02.044Z,13.10
2023-01-13T02:06:29.348Z,12.10
2023-01-13T02:08:57.077Z,12.10
2023-01-13T02:11:52.881Z,11.80
2023-01-13T02:14:23.959Z,11.20
2023-01-13T02:17:16.593Z,12.20
2023-01-13T02:20:11.302Z,11.70
2023-01-13T02:22:56.575Z,12.00
2023-01-13T02:25:23.565Z,11.40
2023-01-13T02:28:18.451Z,11.70
2023-01-13T02:31:23.960Z,11.60
2023-01-13T02:34:01.899Z,11.20
2023-01-13T02:36:56.324Z,11.60
2023-01-13T02:39:41.939Z,11.30
2023-01-13T02:42:29.515Z,11.20
2023-01-13T02:45:21.622Z,11.20
2023-01-13T02:47:50.264Z,11.00
2023-01-13T02:50:20.913Z,11.70
2023-01-13T02:53:01.678Z,11.40
2023-01-13T02:55:37.654Z,12.00
2023-01-13T02:58:06.083Z,11.70
2023-01-13T03:00:33.538Z,11.80
2023-01-13T03:03:01.611Z,11.90
2023-01-13T03:05:28.710Z,11.20
2023-01-13T03:08:15.605Z,12.10
2023-01-13T03:11:01.543Z,12.40
2023-01-13T03:13:56.815Z,11.60
2023-01-13T03:16:47.351Z,12.60
2023-01-13T03:19:35.288Z,14.00
2023-01-13T03:24:56.791Z,13.20
2023-01-13T03:27:32.401Z,12.80
2023-01-13T03:30:03.878Z,13.30
2023-01-13T03:32:35.065Z,14.10
2023-01-13T03:35:09.970Z,14.80
2023-01-13T03:37:39.894Z,15.50
2023-01-13T03:40:10.338Z,14.20
2023-01-13T03:42:37.748Z,13.90
2023-01-13T03:45:13.156Z,14.00
2023-01-13T03:47:45.793Z,15.70
2023-01-13T03:50:19.638Z,15.70
2023-01-13T03:52:49.208Z,16.50
2023-01-13T03:55:21.167Z,15.30
2023-01-13T03:57:59.678Z,15.50
2023-01-13T04:00:30.096Z,17.50
2023-01-13T04:03:00.356Z,16.80
2023-01-13T04:05:27.237Z,17.10
2023-01-13T04:08:16.936Z,15.70
2023-01-13T04:11:22.703Z,16.90
2023-01-13T04:13:49.857Z,17.40
2023-01-13T04:16:16.835Z,17.00
2023-01-13T04:18:43.773Z,16.60
2023-01-13T04:21:10.783Z,15.30
2023-01-13T04:23:37.786Z,16.60
2023-01-13T04:26:04.784Z,16.40
2023-01-13T04:28:33.460Z,16.90
2023-01-13T04:31:00.958Z,16.10
2023-01-13T04:33:28.243Z,17.00
2023-01-13T04:35:55.322Z,14.50
2023-01-13T04:38:22.632Z,17.20
2023-01-13T04:40:49.707Z,15.80
2023-01-13T04:43:16.840Z,15.50
2023-01-13T04:45:43.907Z,16.10
2023-01-13T04:48:11.100Z,16.10
2023-01-13T04:50:38.147Z,16.70
2023-01-13T04:53:05.784Z,15.50
2023-01-13T04:55:32.794Z,15.10
2023-01-13T04:58:06.751Z,15.80
2023-01-13T05:00:34.767Z,16.10
2023-01-13T05:03:01.846Z,16.80
2023-01-13T05:05:29.247Z,17.30
2023-01-13T05:07:56.139Z,15.70
2023-01-13T05:10:24.087Z,16.20
2023-01-13T05:13:09.605Z,18.20
2023-01-13T05:15:55.215Z,18.10
2023-01-13T05:18:22.269Z,18.40
2023-01-13T05:20:49.917Z,18.00
2023-01-13T05:23:35.468Z,18.60
2023-01-13T05:26:02.424Z,17.50
2023-01-13T05:28:33.361Z,17.20
2023-01-13T05:31:01.174Z,18.30
2023-01-13T05:33:28.273Z,18.60
2023-01-13T05:35:55.303Z,19.30
2023-01-13T05:38:22.271Z,17.70
2023-01-13T05:41:07.708Z,18.00
2023-01-13T05:43:34.948Z,17.70
2023-01-13T05:46:07.969Z,18.00
2023-01-13T05:48:40.126Z,16.80
2023-01-13T05:51:11.479Z,17.20
2023-01-13T05:53:40.679Z,18.60
2023-01-13T05:56:08.308Z,16.60
2023-01-13T05:58:35.444Z,17.40
2023-01-13T06:01:03.998Z,16.90
2023-01-13T06:03:31.006Z,16.80
2023-01-13T06:06:02.138Z,16.60
2023-01-13T06:08:29.519Z,16.40
2023-01-13T06:10:56.531Z,16.70
2023-01-13T06:13:25.305Z,16.40
2023-01-13T06:15:55.722Z,17.00
2023-01-13T06:18:24.076Z,17.10
2023-01-13T06:20:51.037Z,16.70
2023-01-13T06:23:19.105Z,14.80
2023-01-13T06:25:55.246Z,15.50
2023-01-13T06:28:22.185Z,17.60
2023-01-13T06:30:49.970Z,15.80
2023-01-13T06:33:19.766Z,17.20
2023-01-13T06:35:50.548Z,15.90
2023-01-13T06:38:17.576Z,16.30
2023-01-13T06:40:44.649Z,18.50
2023-01-13T06:43:17.699Z,17.20
2023-01-13T06:45:47.416Z,15.00
2023-01-13T06:48:14.785Z,16.80
2023-01-13T06:50:42.333Z,16.40
2023-01-13T06:53:10.074Z,17.30
2023-01-13T06:55:37.265Z,18.00
2023-01-13T06:58:04.193Z,17.60
2023-01-13T07:00:32.634Z,17.80
2023-01-13T07:03:13.807Z,16.90
2023-01-13T07:05:43.129Z,17.20
2023-01-13T07:08:10.310Z,16.70
2023-01-13T07:10:37.531Z,18.70
2023-01-13T07:13:23.541Z,17.80
2023-01-13T07:15:57.524Z,17.60
2023-01-13T07:18:24.641Z,17.90
2023-01-13T07:20:53.467Z,17.60
2023-01-13T07:23:20.538Z,18.90
2023-01-13T07:25:47.501Z,18.80
2023-01-13T07:28:14.512Z,17.50
2023-01-13T07:30:41.453Z,18.30
2023-01-13T07:33:08.384Z,16.60
2023-01-13T07:35:35.583Z,18.30
2023-01-13T07:38:02.580Z,17.70
2023-01-13T07:40:29.563Z,20.40
2023-01-13T07:43:15.078Z,19.80
2023-01-13T07:45:42.098Z,18.80
2023-01-13T07:48:09.085Z,18.70
2023-01-13T07:50:36.040Z,19.30
2023-01-13T07:53:03.040Z,21.10
2023-01-13T07:55:30.001Z,20.90
2023-01-13T07:57:56.923Z,21.20
2023-01-13T08:00:23.983Z,20.10
2023-01-13T08:02:51.100Z,21.40
2023-01-13T08:05:18.256Z,22.50
2023-01-13T08:07:45.423Z,23.10
2023-01-13T08:10:12.441Z,23.20
2023-01-13T08:12:57.946Z,22.80
2023-01-13T08:15:25.091Z,22.10
2023-01-13T08:17:51.978Z,24.60
2023-01-13T08:20:19.339Z,24.10
2023-01-13T08:22:46.467Z,26.10
2023-01-13T08:25:13.492Z,25.70
2023-01-13T08:27:40.632Z,23.80
2023-01-13T08:30:08.598Z,23.10
2023-01-13T08:32:35.839Z,22.20
2023-01-13T08:35:02.764Z,24.10
2023-01-13T12:35:05.276Z,31.70
2023-01-13T12:37:42.894Z,28.00
2023-01-13T12:40:42.479Z,24.50
2023-01-13T12:43:37.761Z,20.70
2023-01-13T12:46:21.550Z,19.60
2023-01-13T12:48:54.849Z,18.30
2023-01-13T12:51:45.584Z,18.20
2023-01-13T12:54:31.117Z,17.40
2023-01-13T12:56:58.916Z,18.30
2023-01-13T12:59:25.939Z,18.30
2023-01-13T13:02:11.594Z,18.70
2023-01-13T13:04:51.971Z,18.70
2023-01-13T13:07:20.416Z,17.00
2023-01-13T13:09:53.403Z,17.70
2023-01-13T13:13:02.372Z,17.80
2023-01-13T13:15:30.061Z,19.30
2023-01-13T13:18:00.298Z,16.80
2023-01-13T13:21:04.521Z,17.10
2023-01-13T13:24:04.176Z,17.40
2023-01-13T13:26:36.550Z,19.10
2023-01-13T13:29:37.795Z,25.10
2023-01-13T13:32:23.071Z,22.80
2023-01-13T13:34:53.090Z,19.30
2023-01-13T13:37:55.349Z,18.70
2023-01-13T13:40:42.717Z,18.70
2023-01-13T13:43:31.165Z,18.90
2023-01-13T13:46:16.864Z,20.60
2023-01-13T13:48:54.416Z,20.70
2023-01-13T13:51:27.393Z,20.20
2023-01-13T13:53:55.993Z,19.80
2023-01-13T13:56:24.437Z,20.50
2023-01-13T13:58:52.330Z,20.30
2023-01-13T14:01:27.969Z,19.50
2023-01-13T14:04:18.567Z,19.90
2023-01-13T14:07:16.314Z,21.30
2023-01-13T14:09:45.430Z,22.10
2023-01-13T14:12:18.818Z,20.70
2023-01-13T14:14:46.545Z,20.80
2023-01-13T14:17:26.512Z,20.80
2023-01-13T14:20:09.642Z,21.50
2023-01-13T14:22:36.703Z,19.90
2023-01-13T14:25:21.015Z,20.70
2023-01-13T14:27:48.027Z,19.80
2023-01-13T14:30:15.923Z,19.60
2023-01-13T14:32:42.842Z,20.50
2023-01-13T14:35:10.728Z,19.70
2023-01-13T14:37:39.564Z,20.70
2023-01-13T14:40:06.899Z,20.50
2023-01-13T14:42:35.658Z,21.10
2023-01-13T14:45:03.349Z,22.60
2023-01-13T14:47:33.725Z,20.70
2023-01-13T14:50:22.047Z,20.20
2023-01-13T14:52:50.701Z,20.90
2023-01-13T14:55:34.559Z,23.20
2023-01-13T14:58:20.511Z,22.00
2023-01-13T15:00:48.203Z,21.00
2023-01-13T15:03:16.305Z,20.30
2023-01-13T15:05:48.382Z,21.50
2023-01-13T15:08:17.094Z,21.10
2023-01-13T15:10:54.580Z,20.50
2023-01-13T15:13:43.347Z,21.00
2023-01-13T15:16:21.451Z,21.80
2023-01-13T15:18:48.554Z,23.20
2023-01-13T15:21:18.239Z,23.10
2023-01-13T15:23:47.321Z,21.70
2023-01-13T15:26:24.856Z,21.70
2023-01-13T15:28:52.269Z,22.00
2023-01-13T15:31:19.366Z,22.50
2023-01-13T15:33:46.388Z,23.70
2023-01-13T15:36:23.731Z,22.10
2023-01-13T15:38:50.776Z,21.10
2023-01-13T15:41:17.798Z,24.50
2023-01-13T15:44:03.415Z,21.80
2023-01-13T15:46:39.535Z,21.50
2023-01-13T15:49:37.222Z,21.10
2023-01-13T15:52:05.485Z,22.30
2023-01-13T15:54:32.500Z,21.20
2023-01-13T15:56:59.561Z,22.20
2023-01-13T15:59:27.263Z,21.60
2023-01-13T21:16:58.890Z,33.50
2023-01-13T21:19:26.145Z,35.50
2023-01-13T21:21:53.097Z,31.70
2023-01-13T21:24:20.102Z,27.50
2023-01-13T21:26:49.769Z,22.90
2023-01-13T21:29:16.711Z,23.00
2023-01-13T21:31:43.896Z,22.20
2023-01-13T21:34:11.694Z,24.50
2023-01-13T21:36:38.738Z,24.00
2023-01-13T21:39:05.844Z,22.80
2023-01-13T21:41:51.787Z,23.00
2023-01-13T21:44:38.919Z,22.40
2023-01-13T21:47:35.168Z,22.60
2023-01-13T21:50:02.615Z,22.50
2023-01-13T21:52:29.734Z,22.10
2023-01-13T21:55:15.462Z,21.50
2023-01-13T21:57:53.236Z,23.80
2023-01-13T22:00:21.332Z,21.60
2023-01-13T22:02:48.537Z,21.70
2023-01-13T22:05:17.143Z,20.00
2023-01-13T22:07:44.226Z,22.20
2023-01-13T22:10:15.567Z,22.20
2023-01-13T22:12:43.594Z,22.50
2023-01-13T22:15:11.906Z,21.20
2023-01-13T22:17:40.049Z,21.00
2023-01-13T22:20:08.002Z,21.40
2023-01-13T22:22:37.081Z,24.00
2023-01-13T22:25:06.956Z,22.90
2023-01-13T22:27:39.391Z,22.10
2023-01-13T22:30:18.179Z,20.90
2023-01-13T22:32:45.959Z,24.40
2023-01-13T22:35:13.815Z,24.00
2023-01-13T22:37:41.150Z,22.30
2023-01-13T22:40:09.669Z,22.10
2023-01-13T22:42:40.573Z,23.10
2023-01-13T22:45:09.907Z,24.00
2023-01-13T22:47:37.074Z,22.50
2023-01-13T22:50:04.583Z,21.40
2023-01-13T22:52:32.794Z,23.30
2023-01-13T22:55:00.975Z,23.60
2023-01-13T22:57:36.026Z,24.10
2023-01-13T23:00:10.470Z,23.10
2023-01-13T23:02:40.307Z,23.50
2023-01-13T23:05:07.521Z,22.70
2023-01-13T23:07:35.581Z,23.50
2023-01-13T23:10:03.206Z,24.30
2023-01-13T23:12:30.069Z,23.10
2023-01-13T23:14:57.221Z,22.60
2023-01-13T23:17:24.236Z,22.90
2023-01-13T23:19:51.142Z,24.10
2023-01-13T23:22:18.354Z,23.50
2023-01-13T23:24:45.776Z,23.60
2023-01-13T23:27:12.664Z,23.10
2023-01-13T23:29:39.908Z,24.40
2023-01-13T23:32:06.934Z,24.50
2023-01-13T23:34:33.845Z,23.80
2023-01-13T23:37:00.957Z,22.90
2023-01-13T23:39:27.968Z,22.30
2023-01-13T23:41:55.003Z,23.10
2023-01-13T23:44:22.215Z,22.00
2023-01-13T23:46:49.158Z,23.00
2023-01-13T23:49:16.063Z,21.90
2023-01-13T23:51:43.254Z,22.30
2023-01-13T23:54:10.143Z,20.70
2023-01-13T23:56:39.579Z,22.00
2023-01-13T23:59:06.974Z,20.80
